Time;durP1;ratioP1;P1;durP2;ratioP2;P2;SDS_P1;SDS_P2;PMS_P1;PMS_P2;Temp;Humidity;BMP_temperature;BMP_pressure;BME280_temperature;BME280_humidity;BME280_pressure;Samples;Min_cycle;Max_cycle;Signal;HPM_P1;HPM_P2
2022/01/27 00:00:07;;;;;;;0.30;0.30;;;0.30;99.90;;;;;;5035901;28;20410;-85
2022/01/27 00:02:51;;;;;;;0.50;0.40;;;0.30;99.90;;;;;;5035931;28;20458;-85
2022/01/27 00:05:20;;;;;;;0.30;0.30;;;0.30;99.90;;;;;;5035798;28;20481;-85
2022/01/27 00:07:59;;;;;;;0.50;0.50;;;0.30;99.90;;;;;;5035923;28;20798;-85
2022/01/27 00:10:43;;;;;;;0.30;0.20;;;0.30;99.90;;;;;;5036020;28;20439;-85
2022/01/27 00:13:13;;;;;;;0.83;0.80;;;0.30;99.90;;;;;;5035498;28;20447;-85
2022/01/27 00:15:40;;;;;;;0.90;0.90;;;0.30;99.90;;;;;;5035502;28;20479;-85
2022/01/27 00:18:14;;;;;;;2.00;1.90;;;0.30;99.90;;;;;;5035283;28;20455;-85
2022/01/27 00:20:41;;;;;;;0.60;0.60;;;0.30;99.90;;;;;;5035563;28;20449;-85
2022/01/27 00:23:08;;;;;;;9.50;1.13;;;0.30;99.90;;;;;;5035545;28;20426;-85
2022/01/27 00:25:35;;;;;;;0.30;0.30;;;0.30;99.90;;;;;;5035374;28;20475;-85
2022/01/27 00:28:02;;;;;;;0.67;0.67;;;0.30;99.90;;;;;;5035450;28;20439;-85
2022/01/27 00:30:29;;;;;;;0.40;0.40;;;0.30;99.90;;;;;;5035176;28;20435;-85
2022/01/27 00:32:56;;;;;;;0.83;0.83;;;0.20;99.90;;;;;;5035118;28;20439;-85
2022/01/27 00:35:24;;;;;;;1.27;1.17;;;0.30;99.90;;;;;;5034686;28;20491;-85
2022/01/27 00:37:51;;;;;;;0.63;0.63;;;0.20;99.90;;;;;;5034951;28;21011;-85
2022/01/27 00:40:18;;;;;;;0.50;0.43;;;0.20;99.90;;;;;;5035040;28;20429;-85
2022/01/27 00:42:45;;;;;;;0.67;0.67;;;0.20;99.90;;;;;;5035183;28;20465;-85
2022/01/27 00:45:12;;;;;;;0.30;0.30;;;0.20;99.90;;;;;;5034900;28;20849;-85
2022/01/27 00:47:39;;;;;;;0.30;0.20;;;0.20;99.90;;;;;;5034760;28;20434;-85
2022/01/27 00:50:07;;;;;;;0.97;0.77;;;0.20;99.90;;;;;;5040901;28;20443;-85
2022/01/27 00:52:39;;;;;;;0.40;0.40;;;0.20;99.90;;;;;;5034960;28;20473;-85
2022/01/27 00:55:08;;;;;;;0.30;0.30;;;0.20;99.90;;;;;;5034950;28;20513;-85
2022/01/27 00:57:47;;;;;;;0.30;0.20;;;0.20;99.90;;;;;;5034807;28;20486;-85
2022/01/27 01:00:19;;;;;;;0.40;0.40;;;0.20;99.90;;;;;;5034683;28;20427;-85
2022/01/27 01:02:51;;;;;;;0.40;0.40;;;0.20;99.90;;;;;;5034329;28;20443;-85
2022/01/27 01:05:34;;;;;;;0.90;0.90;;;0.20;99.90;;;;;;5034702;28;20486;-85
2022/01/27 01:08:31;;;;;;;0.60;0.60;;;0.20;99.90;;;;;;5034693;28;20493;-85
2022/01/27 01:11:21;;;;;;;0.30;0.30;;;0.20;99.90;;;;;;5034194;28;20482;-85
2022/01/27 01:16:46;;;;;;;0.67;0.67;;;0.20;99.90;;;;;;5034489;28;20833;-85
2022/01/27 01:19:21;;;;;;;0.50;0.43;;;0.30;99.90;;;;;;5034423;28;20848;-85
2022/01/27 01:22:05;;;;;;;0.30;0.30;;;0.30;99.90;;;;;;5034480;28;20438;-85
2022/01/27 01:30:20;;;;;;;1.23;1.23;;;0.20;99.90;;;;;;5016919;28;20851;-85
2022/01/27 01:32:51;;;;;;;0.87;0.87;;;0.20;99.90;;;;;;5046192;28;20434;-85
2022/01/27 01:35:27;;;;;;;0.73;0.73;;;0.10;99.90;;;;;;5034113;28;20561;-84
2022/01/27 01:37:54;;;;;;;0.50;0.50;;;0.20;99.90;;;;;;5033698;28;20505;-85
2022/01/27 01:40:22;;;;;;;0.63;0.60;;;0.20;99.90;;;;;;5034110;28;20446;-85
2022/01/27 01:42:49;;;;;;;1.63;1.53;;;0.10;99.90;;;;;;5034041;28;20450;-85
2022/01/27 01:45:18;;;;;;;0.63;0.63;;;0.20;99.90;;;;;;5033668;28;20962;-85
2022/01/27 01:47:45;;;;;;;0.30;0.30;;;0.10;99.90;;;;;;5033902;28;20450;-85
2022/01/27 01:50:13;;;;;;;0.80;0.80;;;0.10;99.90;;;;;;5033546;28;20434;-85
2022/01/27 01:52:41;;;;;;;0.30;0.30;;;0.00;99.90;;;;;;5033828;28;20443;-85
2022/01/27 01:55:10;;;;;;;0.40;0.40;;;0.00;99.90;;;;;;5033775;28;20485;-85
2022/01/27 01:57:38;;;;;;;0.30;0.30;;;-0.10;99.90;;;;;;5033722;28;20818;-85
2022/01/27 02:00:08;;;;;;;0.30;0.30;;;-0.10;99.90;;;;;;5033696;28;20462;-85
2022/01/27 02:02:35;;;;;;;0.63;0.63;;;-0.10;99.90;;;;;;5033682;28;20439;-85
2022/01/27 02:05:02;;;;;;;0.47;0.47;;;-0.10;99.90;;;;;;5033607;28;20523;-85
2022/01/27 02:07:37;;;;;;;0.30;0.30;;;-0.10;99.90;;;;;;5033282;28;20445;-85
2022/01/27 02:10:16;;;;;;;1.70;1.60;;;-0.10;99.90;;;;;;5033692;28;20434;-85
2022/01/27 02:18:21;;;;;;;1.43;1.33;;;-0.10;99.90;;;;;;5032080;28;20531;-85
2022/01/27 02:20:49;;;;;;;0.90;0.90;;;-0.20;99.90;;;;;;5033170;28;20446;-85
2022/01/27 02:23:17;;;;;;;1.03;1.03;;;-0.20;99.90;;;;;;5033472;28;20808;-85
2022/01/27 02:25:44;;;;;;;0.30;0.20;;;-0.10;99.90;;;;;;5033368;28;20474;-85
2022/01/27 02:28:11;;;;;;;0.60;0.60;;;-0.20;99.90;;;;;;5033074;28;20447;-85
2022/01/27 02:30:38;;;;;;;1.37;1.13;;;-0.20;99.90;;;;;;5033339;28;20455;-85
2022/01/27 02:33:05;;;;;;;0.40;0.30;;;-0.30;99.90;;;;;;5032980;28;20973;-85
2022/01/27 02:35:35;;;;;;;2.80;2.70;;;-0.30;99.90;;;;;;5032669;28;20841;-85
2022/01/27 02:38:05;;;;;;;2.00;1.90;;;-0.30;99.90;;;;;;5033243;28;20482;-85
2022/01/27 02:40:38;;;;;;;2.37;0.63;;;-0.30;99.90;;;;;;5033323;28;20537;-85
2022/01/27 02:43:06;;;;;;;0.30;0.30;;;-0.30;99.90;;;;;;5033225;28;20430;-85
2022/01/27 02:45:40;;;;;;;1.00;1.00;;;-0.30;99.90;;;;;;5032812;28;20973;-85
2022/01/27 02:48:07;;;;;;;0.57;0.57;;;-0.30;99.90;;;;;;5033793;28;20435;-85
2022/01/27 02:50:34;;;;;;;0.97;0.97;;;-0.20;99.90;;;;;;5033099;28;20450;-85
2022/01/27 02:53:00;;;;;;;0.40;0.40;;;-0.30;99.90;;;;;;5033192;28;20476;-85
2022/01/27 02:55:29;;;;;;;0.60;0.60;;;-0.30;99.90;;;;;;5033205;28;20481;-85
2022/01/27 02:57:58;;;;;;;0.40;0.40;;;-0.40;99.90;;;;;;5032752;28;20474;-84
2022/01/27 03:00:25;;;;;;;2.00;1.03;;;-0.30;99.90;;;;;;5033090;28;20811;-85
2022/01/27 03:02:52;;;;;;;1.10;1.10;;;-0.40;99.90;;;;;;5032772;28;20450;-85
2022/01/27 03:05:19;;;;;;;0.30;0.30;;;-0.40;99.90;;;;;;5032925;28;20478;-85
2022/01/27 03:07:48;;;;;;;0.30;0.30;;;-0.50;99.90;;;;;;5032713;28;20473;-85
2022/01/27 03:10:16;;;;;;;0.50;0.50;;;-0.50;99.90;;;;;;5032992;28;20532;-85
2022/01/27 03:12:44;;;;;;;1.10;1.10;;;-0.50;99.90;;;;;;5032917;28;20477;-85
2022/01/27 03:15:11;;;;;;;0.30;0.20;;;-0.50;99.90;;;;;;5032868;28;20470;-84
2022/01/27 03:17:39;;;;;;;0.30;0.30;;;-0.50;99.90;;;;;;5032577;28;20821;-85
2022/01/27 03:20:08;;;;;;;0.70;0.70;;;-0.50;99.90;;;;;;5032876;28;20443;-85
2022/01/27 03:22:34;;;;;;;0.80;0.80;;;-0.50;99.90;;;;;;5032864;28;20451;-85
2022/01/27 03:25:02;;;;;;;1.57;1.13;;;-0.50;99.90;;;;;;5034605;28;20485;-85
2022/01/27 03:27:29;;;;;;;0.30;0.30;;;-0.40;99.90;;;;;;5036244;28;20441;-85
2022/01/27 03:29:57;;;;;;;0.33;0.33;;;-0.40;99.90;;;;;;5036491;28;20516;-85
2022/01/27 03:32:25;;;;;;;0.30;0.30;;;-0.50;99.90;;;;;;5036402;28;20804;-85
2022/01/27 03:34:52;;;;;;;0.83;0.83;;;-0.50;99.90;;;;;;5035791;28;21028;-85
2022/01/27 03:37:19;;;;;;;0.40;0.37;;;-0.50;99.90;;;;;;5036256;28;20463;-85
2022/01/27 03:39:46;;;;;;;0.30;0.27;;;-0.50;99.90;;;;;;5036236;28;20429;-85
2022/01/27 03:42:12;;;;;;;0.30;0.30;;;-0.50;99.90;;;;;;5036256;28;20479;-85
2022/01/27 03:44:39;;;;;;;0.40;0.40;;;-0.50;99.90;;;;;;5035984;28;20451;-85
2022/01/27 03:47:08;;;;;;;0.30;0.30;;;-0.50;99.90;;;;;;5036219;28;20443;-85
2022/01/27 03:49:34;;;;;;;0.30;0.23;;;-0.50;99.90;;;;;;5035796;28;20971;-85
2022/01/27 03:52:01;;;;;;;0.30;0.30;;;-0.50;99.90;;;;;;5036069;28;20413;-85
2022/01/27 03:54:30;;;;;;;0.60;0.60;;;-0.50;99.90;;;;;;5036086;28;20525;-84
2022/01/27 03:56:57;;;;;;;0.57;0.57;;;-0.50;99.90;;;;;;5035838;28;20906;-85
2022/01/27 03:59:24;;;;;;;0.80;0.80;;;-0.50;99.90;;;;;;5036002;28;20772;-85
2022/01/27 04:01:50;;;;;;;0.30;0.30;;;-0.50;99.90;;;;;;5035922;28;20785;-85
2022/01/27 04:04:18;;;;;;;0.30;0.30;;;-0.50;99.90;;;;;;5035544;28;20495;-85
2022/01/27 04:06:49;;;;;;;0.40;0.40;;;-0.50;99.90;;;;;;5035736;28;20486;-85
2022/01/27 04:09:16;;;;;;;0.60;0.60;;;-0.50;99.90;;;;;;5035840;28;20435;-85
2022/01/27 04:11:44;;;;;;;0.90;0.50;;;-0.60;99.90;;;;;;5035570;28;20828;-85
2022/01/27 04:14:11;;;;;;;0.30;0.30;;;-0.70;99.90;;;;;;5035680;28;20550;-85
2022/01/27 04:16:38;;;;;;;2.30;2.10;;;-0.70;99.90;;;;;;5035624;28;20458;-85
2022/01/27 04:19:05;;;;;;;0.30;0.30;;;-0.70;99.90;;;;;;5035405;28;20431;-85
2022/01/27 04:21:33;;;;;;;0.70;0.70;;;-0.80;99.90;;;;;;5035480;28;20457;-85
2022/01/27 04:24:00;;;;;;;0.50;0.50;;;-0.80;99.90;;;;;;5035179;28;20805;-85
2022/01/27 04:26:33;;;;;;;1.03;0.80;;;-0.80;99.90;;;;;;5035341;28;20466;-84
2022/01/27 04:29:01;;;;;;;0.30;0.30;;;-0.80;99.90;;;;;;5035458;28;20466;-85
2022/01/27 04:31:28;;;;;;;0.30;0.30;;;-0.90;99.90;;;;;;5035069;28;20447;-84
2022/01/27 04:33:55;;;;;;;0.30;0.30;;;-0.80;99.90;;;;;;5035319;28;20450;-84
2022/01/27 04:36:29;;;;;;;0.30;0.30;;;-0.90;99.90;;;;;;5034565;28;20556;-85
2022/01/27 04:39:06;;;;;;;0.30;0.30;;;-0.90;99.90;;;;;;5035145;28;20475;-84
2022/01/27 04:41:39;;;;;;;0.30;0.30;;;-0.90;99.90;;;;;;5034900;28;20869;-85
2022/01/27 04:44:14;;;;;;;0.43;0.43;;;-1.00;99.90;;;;;;5034828;28;20953;-85
2022/01/27 04:46:47;;;;;;;0.60;0.60;;;-0.90;99.90;;;;;;5034937;28;20882;-85
2022/01/27 04:49:14;;;;;;;0.40;0.40;;;-1.00;99.90;;;;;;5035258;28;20866;-85
2022/01/27 04:51:41;;;;;;;0.50;0.50;;;-1.00;99.90;;;;;;5034937;28;20453;-84
2022/01/27 04:54:14;;;;;;;0.70;0.70;;;-1.10;99.90;;;;;;5034911;28;20465;-85
2022/01/27 04:56:42;;;;;;;0.60;0.60;;;-1.10;99.90;;;;;;5034767;28;20470;-85
2022/01/27 04:59:15;;;;;;;1.23;0.63;;;-1.10;99.90;;;;;;5034705;28;20525;-85
2022/01/27 05:01:47;;;;;;;0.30;0.30;;;-1.00;99.90;;;;;;5034550;28;20926;-85
2022/01/27 05:04:17;;;;;;;0.30;0.20;;;-1.00;99.90;;;;;;5034958;28;20442;-85
2022/01/27 05:06:44;;;;;;;0.30;0.30;;;-1.00;99.90;;;;;;5034646;28;20475;-85
2022/01/27 05:09:12;;;;;;;0.30;0.30;;;-1.00;99.90;;;;;;5034315;28;20447;-85
2022/01/27 05:11:46;;;;;;;0.30;0.30;;;-1.00;99.90;;;;;;5034555;28;20793;-84
2022/01/27 05:14:17;;;;;;;0.60;0.60;;;-1.00;99.90;;;;;;5034541;28;20427;-85
2022/01/27 05:16:44;;;;;;;1.13;1.13;;;-1.00;99.90;;;;;;5034424;28;20467;-85
2022/01/27 05:19:11;;;;;;;0.50;0.50;;;-0.90;99.90;;;;;;5034057;28;20562;-85
2022/01/27 05:21:37;;;;;;;0.77;0.77;;;-0.90;99.90;;;;;;5034395;28;20442;-85
2022/01/27 05:24:05;;;;;;;1.47;0.93;;;-0.90;99.90;;;;;;5034373;28;20455;-85
2022/01/27 05:26:34;;;;;;;0.93;0.93;;;-0.90;99.90;;;;;;5034195;28;20852;-85
2022/01/27 05:29:01;;;;;;;0.73;0.73;;;-0.90;99.90;;;;;;5034278;28;20493;-85
2022/01/27 05:31:28;;;;;;;0.30;0.30;;;-0.90;99.90;;;;;;5034129;28;20466;-85
2022/01/27 05:33:54;;;;;;;0.73;0.50;;;-0.90;99.90;;;;;;5034137;28;20450;-84
2022/01/27 05:36:21;;;;;;;1.40;1.33;;;-0.90;99.90;;;;;;5033586;28;20501;-84
2022/01/27 05:38:48;;;;;;;0.33;0.33;;;-1.00;99.90;;;;;;5034530;28;20486;-84
2022/01/27 05:41:15;;;;;;;1.13;1.13;;;-1.00;99.90;;;;;;5033681;28;20826;-85
2022/01/27 05:43:44;;;;;;;2.00;1.90;;;-1.00;99.90;;;;;;5033943;28;20450;-85
2022/01/27 05:46:11;;;;;;;0.30;0.30;;;-1.10;99.90;;;;;;5033866;28;20490;-85
2022/01/27 05:48:38;;;;;;;0.30;0.30;;;-1.00;99.90;;;;;;5032999;28;20449;-85
2022/01/27 05:51:06;;;;;;;0.50;0.40;;;-1.10;99.90;;;;;;5033884;28;20450;-84
2022/01/27 05:53:35;;;;;;;0.40;0.40;;;-1.10;99.90;;;;;;5033848;28;20458;-85
2022/01/27 05:56:02;;;;;;;5.10;2.23;;;-1.10;99.90;;;;;;5033643;28;20458;-85
2022/01/27 05:58:29;;;;;;;0.30;0.20;;;-1.10;99.90;;;;;;5033406;28;20997;-85
2022/01/27 06:00:57;;;;;;;0.80;0.80;;;-1.10;99.90;;;;;;5033412;28;20934;-85
2022/01/27 06:03:24;;;;;;;0.83;0.83;;;-1.10;99.90;;;;;;5033675;28;20421;-85
2022/01/27 06:05:51;;;;;;;0.63;0.63;;;-1.10;99.90;;;;;;5033589;28;20474;-85
2022/01/27 06:08:17;;;;;;;0.30;0.27;;;-1.10;99.90;;;;;;5033308;28;20942;-84
2022/01/27 06:10:44;;;;;;;0.30;0.20;;;-1.10;99.90;;;;;;5033505;28;20443;-84
2022/01/27 06:13:11;;;;;;;0.30;0.20;;;-1.10;99.90;;;;;;5033553;28;20446;-84
2022/01/27 06:15:38;;;;;;;0.30;0.27;;;-1.00;99.90;;;;;;5033426;28;20471;-85
2022/01/27 06:18:06;;;;;;;0.30;0.30;;;-1.10;99.90;;;;;;5033119;28;20482;-85
2022/01/27 06:20:33;;;;;;;0.30;0.30;;;-1.10;99.90;;;;;;5033429;28;20454;-85
2022/01/27 06:23:00;;;;;;;0.50;0.50;;;-1.10;99.90;;;;;;5033479;28;20524;-85
2022/01/27 06:25:27;;;;;;;0.47;0.47;;;-1.10;99.90;;;;;;5033968;28;20474;-85
2022/01/27 06:27:55;;;;;;;0.97;0.90;;;-1.10;99.90;;;;;;5033325;28;20455;-85
2022/01/27 06:30:22;;;;;;;0.30;0.30;;;-1.10;99.90;;;;;;5033401;28;20451;-85
2022/01/27 06:32:48;;;;;;;1.57;1.57;;;-1.10;99.90;;;;;;5033124;28;20420;-84
2022/01/27 06:35:17;;;;;;;0.80;0.80;;;-1.10;99.90;;;;;;5033383;28;20482;-85
2022/01/27 06:37:45;;;;;;;0.30;0.20;;;-1.00;99.90;;;;;;5032851;28;20459;-85
2022/01/27 06:40:14;;;;;;;0.40;0.40;;;-1.00;99.90;;;;;;5033205;28;20485;-84
2022/01/27 06:42:41;;;;;;;0.30;0.30;;;-1.10;99.90;;;;;;5033192;28;20455;-85
2022/01/27 06:45:09;;;;;;;0.50;0.50;;;-1.10;99.90;;;;;;5032776;28;20475;-85
2022/01/27 06:47:35;;;;;;;0.30;0.30;;;-1.10;99.90;;;;;;5032869;28;20967;-85
2022/01/27 06:50:02;;;;;;;0.53;0.53;;;-1.00;99.90;;;;;;5033197;28;20454;-85
2022/01/27 06:52:30;;;;;;;0.30;0.30;;;-1.00;99.90;;;;;;5033106;28;20450;-85
2022/01/27 06:54:57;;;;;;;0.50;0.50;;;-0.90;99.90;;;;;;5032742;28;20482;-85
2022/01/27 06:57:25;;;;;;;0.30;0.30;;;-1.00;99.90;;;;;;5033104;28;20454;-85
2022/01/27 06:59:52;;;;;;;0.33;0.33;;;-1.00;99.90;;;;;;5036435;28;20465;-85
2022/01/27 07:02:19;;;;;;;0.30;0.30;;;-1.10;99.90;;;;;;5036998;28;20450;-85
2022/01/27 07:04:46;;;;;;;0.50;0.50;;;-1.00;99.90;;;;;;5037048;28;20446;-85
2022/01/27 07:07:13;;;;;;;0.30;0.30;;;-1.10;99.90;;;;;;5036853;28;20442;-85
2022/01/27 07:09:41;;;;;;;0.30;0.30;;;-1.10;99.90;;;;;;5037218;28;20442;-85
2022/01/27 07:12:09;;;;;;;0.40;0.40;;;-1.10;99.90;;;;;;5037026;28;20421;-85
2022/01/27 07:14:36;;;;;;;0.30;0.30;;;-1.10;99.90;;;;;;5036727;28;20462;-85
2022/01/27 07:17:04;;;;;;;0.30;0.30;;;-1.10;99.90;;;;;;5036703;28;20421;-85
2022/01/27 07:19:30;;;;;;;0.30;0.30;;;-1.00;99.90;;;;;;5036827;28;21020;-84
2022/01/27 07:21:57;;;;;;;0.30;0.20;;;-1.10;99.90;;;;;;5036468;28;20439;-85
2022/01/27 07:24:24;;;;;;;0.40;0.40;;;-1.00;99.90;;;;;;5036581;28;20447;-85
2022/01/27 07:26:52;;;;;;;0.60;0.60;;;-1.00;99.90;;;;;;5036472;28;20474;-85
2022/01/27 07:29:20;;;;;;;0.60;0.50;;;-0.90;99.90;;;;;;5036475;28;20463;-85
2022/01/27 07:31:47;;;;;;;0.30;0.30;;;-0.90;99.90;;;;;;5036235;28;20919;-85
2022/01/27 07:34:13;;;;;;;0.30;0.30;;;-0.90;99.90;;;;;;5036048;28;21000;-85
2022/01/27 07:36:40;;;;;;;0.57;0.57;;;-0.90;99.90;;;;;;5036348;28;20470;-85
2022/01/27 07:39:12;;;;;;;0.30;0.30;;;-0.80;99.90;;;;;;5036318;28;20493;-85
2022/01/27 07:41:39;;;;;;;0.30;0.27;;;-0.70;99.90;;;;;;5036101;28;20442;-85
2022/01/27 07:44:08;;;;;;;0.53;0.53;;;-0.80;99.90;;;;;;5036242;28;20499;-85
2022/01/27 07:46:34;;;;;;;0.30;0.20;;;-0.90;99.90;;;;;;5036146;28;20449;-85
2022/01/27 07:49:01;;;;;;;3.27;0.90;;;-0.90;99.90;;;;;;5036048;28;20509;-86
2022/01/27 07:51:28;;;;;;;2.97;2.87;;;-0.90;99.90;;;;;;5036091;28;20458;-85
2022/01/27 07:53:55;;;;;;;0.30;0.30;;;-0.90;99.90;;;;;;5036062;28;20473;-85
2022/01/27 07:56:21;;;;;;;0.50;0.40;;;-0.80;99.90;;;;;;5035954;28;20478;-85
2022/01/27 07:58:48;;;;;;;0.50;0.50;;;-0.80;99.90;;;;;;5036066;28;20471;-85
2022/01/27 08:01:16;;;;;;;1.43;1.07;;;-0.80;99.90;;;;;;5036404;28;20427;-85
2022/01/27 08:03:43;;;;;;;0.50;0.50;;;-0.70;99.90;;;;;;5036089;28;20422;-85
2022/01/27 08:06:10;;;;;;;0.30;0.20;;;-0.70;99.90;;;;;;5035871;28;20474;-85
2022/01/27 08:08:36;;;;;;;0.40;0.40;;;-0.70;99.90;;;;;;5035901;28;20412;-85
2022/01/27 08:11:03;;;;;;;0.30;0.20;;;-0.70;99.90;;;;;;5035041;28;20423;-85
2022/01/27 08:13:30;;;;;;;0.30;0.30;;;-0.70;99.90;;;;;;5035592;28;20431;-85
2022/01/27 08:15:57;;;;;;;0.47;0.47;;;-0.70;99.90;;;;;;5035721;28;20478;-83
2022/01/27 08:18:25;;;;;;;0.40;0.40;;;-0.70;99.90;;;;;;5035748;28;20483;-86
2022/01/27 08:20:52;;;;;;;0.50;0.30;;;-0.60;99.90;;;;;;5035898;28;20435;-84
2022/01/27 08:23:20;;;;;;;0.33;0.27;;;-0.60;99.90;;;;;;5035605;28;20835;-83
2022/01/27 08:25:53;;;;;;;1.53;1.53;;;-0.60;99.90;;;;;;5035509;28;20463;-83
2022/01/27 08:28:26;;;;;;;0.60;0.60;;;-0.50;99.90;;;;;;5035544;28;20434;-83
2022/01/27 08:30:55;;;;;;;0.30;0.30;;;-0.50;99.90;;;;;;5035554;28;20439;-83
2022/01/27 08:33:23;;;;;;;0.83;0.83;;;-0.40;99.90;;;;;;5035480;28;20608;-83
2022/01/27 08:35:51;;;;;;;0.50;0.50;;;-0.30;99.90;;;;;;5034841;28;20493;-83
2022/01/27 08:38:18;;;;;;;0.63;0.63;;;-0.30;99.90;;;;;;5034945;28;20443;-83
2022/01/27 08:40:45;;;;;;;10.50;1.13;;;-0.20;99.90;;;;;;5034952;28;20434;-83
2022/01/27 08:43:12;;;;;;;0.60;0.60;;;-0.20;99.90;;;;;;5035178;28;20809;-83
2022/01/27 08:45:42;;;;;;;0.73;0.70;;;-0.10;99.90;;;;;;5035248;28;20462;-83
2022/01/27 08:48:12;;;;;;;0.30;0.30;;;-0.10;99.90;;;;;;5035125;28;20454;-83
2022/01/27 08:50:39;;;;;;;0.30;0.30;;;0.00;99.90;;;;;;5035022;28;20442;-83
2022/01/27 08:53:07;;;;;;;0.30;0.30;;;0.00;99.90;;;;;;5034661;28;20446;-83
2022/01/27 08:55:34;;;;;;;0.30;0.30;;;0.10;99.90;;;;;;5034803;28;20466;-83
2022/01/27 08:58:01;;;;;;;0.30;0.30;;;0.20;99.90;;;;;;5034839;28;20451;-83
2022/01/27 09:00:28;;;;;;;0.40;0.40;;;0.20;99.90;;;;;;5034792;28;20486;-83
2022/01/27 09:02:56;;;;;;;0.30;0.30;;;0.20;99.90;;;;;;5034514;28;20446;-83
2022/01/27 09:05:23;;;;;;;0.30;0.30;;;0.30;99.90;;;;;;5034662;28;20458;-83
2022/01/27 09:07:53;;;;;;;0.60;0.60;;;0.30;99.90;;;;;;5034653;28;20447;-83
2022/01/27 09:10:21;;;;;;;1.07;1.03;;;0.40;99.90;;;;;;5034690;28;20442;-83
2022/01/27 09:12:48;;;;;;;0.30;0.23;;;0.40;99.90;;;;;;5034533;28;20462;-84
2022/01/27 09:15:14;;;;;;;1.07;0.73;;;0.50;99.90;;;;;;5034389;28;20487;-84
2022/01/27 09:17:41;;;;;;;0.50;0.50;;;0.40;99.90;;;;;;5034121;28;20973;-84
2022/01/27 09:20:09;;;;;;;0.40;0.40;;;0.60;99.90;;;;;;5034033;28;20482;-84
2022/01/27 09:22:37;;;;;;;0.30;0.30;;;1.00;99.90;;;;;;5033230;28;20458;-84
2022/01/27 09:25:11;;;;;;;0.97;0.83;;;1.20;99.90;;;;;;5034380;28;20469;-83
2022/01/27 09:27:42;;;;;;;0.30;0.20;;;1.70;99.90;;;;;;5037369;28;20434;-84
2022/01/27 09:30:10;;;;;;;0.30;0.30;;;2.40;99.90;;;;;;5034793;28;20431;-84
2022/01/27 09:32:37;;;;;;;0.80;0.80;;;3.70;99.90;;;;;;5034001;28;20449;-84
2022/01/27 09:35:04;;;;;;;0.43;0.43;;;4.90;99.90;;;;;;5033965;28;20870;-83
2022/01/27 09:37:31;;;;;;;0.30;0.30;;;5.80;99.90;;;;;;5034667;28;20470;-84
2022/01/27 09:39:58;;;;;;;0.40;0.30;;;7.00;99.90;;;;;;5033830;28;20478;-84
2022/01/27 09:42:28;;;;;;;0.80;0.80;;;7.90;99.90;;;;;;5034223;28;20458;-84
2022/01/27 09:44:59;;;;;;;0.40;0.30;;;8.50;99.90;;;;;;5034379;28;21808;-84
2022/01/27 09:47:29;;;;;;;2.60;1.80;;;8.90;99.90;;;;;;5034122;28;20461;-83
2022/01/27 09:50:06;;;;;;;0.77;0.77;;;8.90;99.90;;;;;;5034078;28;20448;-84
2022/01/27 09:52:33;;;;;;;0.90;0.90;;;8.50;99.90;;;;;;5033688;28;20431;-84
2022/01/27 09:55:00;;;;;;;2.27;1.17;;;8.10;99.60;;;;;;5033727;28;20455;-83
2022/01/27 09:57:27;;;;;;;1.27;1.17;;;7.70;99.90;;;;;;5034002;28;20451;-83
2022/01/27 09:59:56;;;;;;;1.37;0.97;;;7.70;99.70;;;;;;5034036;28;20470;-84
2022/01/27 10:02:26;;;;;;;0.47;0.47;;;7.90;99.90;;;;;;5033635;28;20925;-84
2022/01/27 10:04:54;;;;;;;1.00;0.37;;;7.70;98.90;;;;;;5033852;28;20897;-84
2022/01/27 10:07:22;;;;;;;1.17;1.07;;;7.10;99.70;;;;;;5033840;28;20450;-84
2022/01/27 10:10:01;;;;;;;0.50;0.30;;;6.60;99.90;;;;;;5033643;28;20968;-84
2022/01/27 10:12:30;;;;;;;0.87;0.60;;;6.20;99.90;;;;;;5033822;28;20462;-84
2022/01/27 10:15:02;;;;;;;0.30;0.30;;;6.10;99.90;;;;;;5034126;28;20845;-84
2022/01/27 10:17:31;;;;;;;0.53;0.40;;;5.80;99.90;;;;;;5033368;28;20457;-84
2022/01/27 10:19:58;;;;;;;0.30;0.20;;;5.30;99.90;;;;;;5033598;28;20474;-84
2022/01/27 10:22:25;;;;;;;0.30;0.30;;;4.70;99.90;;;;;;5033262;28;20439;-84
2022/01/27 10:25:03;;;;;;;0.50;0.50;;;4.20;99.90;;;;;;5033479;28;20404;-84
2022/01/27 10:27:34;;;;;;;0.30;0.30;;;3.80;99.90;;;;;;5033690;28;20902;-83
2022/01/27 10:32:51;;;;;;;0.30;0.20;;;3.20;99.90;;;;;;5033128;28;20411;-84
2022/01/27 10:35:21;;;;;;;0.30;0.20;;;3.10;99.90;;;;;;5033090;28;20486;-84
2022/01/27 10:38:00;;;;;;;2.60;0.77;;;3.00;99.90;;;;;;5033227;28;20454;-84
2022/01/27 10:40:30;;;;;;;0.40;0.40;;;2.90;99.90;;;;;;5033446;28;20470;-84
2022/01/27 10:43:08;;;;;;;0.40;0.40;;;2.80;99.90;;;;;;5033226;28;20780;-84
2022/01/27 10:45:37;;;;;;;0.40;0.40;;;2.50;99.90;;;;;;5033269;28;20474;-84
2022/01/27 10:48:12;;;;;;;0.97;0.97;;;2.40;99.90;;;;;;5033311;28;20470;-84
2022/01/27 10:51:04;;;;;;;0.37;0.37;;;2.20;99.90;;;;;;5033304;28;20433;-83
2022/01/27 10:53:47;;;;;;;0.60;0.47;;;2.10;99.90;;;;;;5033595;28;20839;-84
2022/01/27 10:56:17;;;;;;;0.87;0.87;;;2.00;99.90;;;;;;5033244;28;20475;-84
2022/01/27 10:58:44;;;;;;;0.90;0.90;;;2.00;99.90;;;;;;5032953;28;20775;-84
2022/01/27 11:01:25;;;;;;;2.60;0.73;;;2.00;99.90;;;;;;5033171;28;20443;-84
2022/01/27 11:03:54;;;;;;;0.30;0.30;;;2.00;99.90;;;;;;5033174;28;20442;-84
2022/01/27 11:06:25;;;;;;;0.93;0.73;;;2.10;99.90;;;;;;5033042;28;20482;-84
2022/01/27 11:08:54;;;;;;;0.30;0.30;;;2.10;99.90;;;;;;5033893;28;20541;-82
2022/01/27 11:11:23;;;;;;;0.60;0.60;;;2.10;99.90;;;;;;5033206;28;20490;-83
2022/01/27 11:13:51;;;;;;;0.40;0.40;;;2.00;99.90;;;;;;5033712;28;20447;-83
2022/01/27 11:16:23;;;;;;;0.30;0.30;;;1.90;99.90;;;;;;5032788;28;20973;-83
2022/01/27 11:18:51;;;;;;;1.33;1.23;;;1.90;99.90;;;;;;5033323;28;20471;-84
2022/01/27 11:21:31;;;;;;;0.30;0.20;;;1.90;99.90;;;;;;5032978;28;20565;-82
2022/01/27 11:24:04;;;;;;;0.30;0.30;;;1.90;99.90;;;;;;5033042;28;20441;-83
2022/01/27 11:26:34;;;;;;;2.93;0.60;;;1.90;99.90;;;;;;5033023;28;20482;-84
2022/01/27 11:29:03;;;;;;;0.30;0.30;;;1.90;99.90;;;;;;5032935;28;20932;-83
2022/01/27 11:31:53;;;;;;;0.40;0.40;;;2.00;99.90;;;;;;5032970;28;20419;-83
2022/01/27 11:34:20;;;;;;;0.50;0.50;;;2.00;99.90;;;;;;5033272;28;20459;-83
2022/01/27 11:37:03;;;;;;;0.30;0.30;;;2.10;99.90;;;;;;5032381;28;20482;-83
2022/01/27 11:39:54;;;;;;;0.67;0.67;;;2.10;99.90;;;;;;5033060;28;20832;-84
2022/01/27 11:42:42;;;;;;;0.30;0.30;;;2.20;99.90;;;;;;5032987;28;20427;-85
2022/01/27 11:45:29;;;;;;;0.60;0.60;;;2.20;99.90;;;;;;5033486;28;20462;-84
2022/01/27 11:48:00;;;;;;;1.23;0.70;;;2.30;99.90;;;;;;5036540;28;20505;-84
2022/01/27 11:50:33;;;;;;;5.60;1.43;;;2.30;99.90;;;;;;5036435;28;20435;-85
2022/01/27 11:53:01;;;;;;;0.87;0.80;;;2.30;99.90;;;;;;5036316;28;20905;-84
2022/01/27 11:55:46;;;;;;;0.40;0.40;;;2.40;99.90;;;;;;5036534;28;20473;-84
2022/01/27 11:58:15;;;;;;;1.37;1.30;;;2.30;99.90;;;;;;5036406;28;20518;-85
2022/01/27 12:01:13;;;;;;;0.73;0.73;;;2.40;99.90;;;;;;5036007;28;20459;-84
2022/01/27 12:04:02;;;;;;;0.33;0.27;;;2.40;99.90;;;;;;5036948;28;20443;-84
2022/01/27 12:06:32;;;;;;;2.40;1.30;;;2.30;99.90;;;;;;5035664;28;20852;-84
2022/01/27 12:09:32;;;;;;;1.80;0.50;;;2.40;99.90;;;;;;5035841;28;20435;-84
2022/01/27 12:12:02;;;;;;;0.40;0.40;;;2.30;99.90;;;;;;5035708;28;20435;-84
2022/01/27 12:15:04;;;;;;;0.30;0.30;;;2.20;99.90;;;;;;5036030;28;20910;-85
2022/01/27 12:17:34;;;;;;;2.00;1.90;;;2.20;99.90;;;;;;5035809;28;20906;-85
2022/01/27 12:20:05;;;;;;;3.20;2.10;;;2.20;99.90;;;;;;5035914;28;20569;-85
2022/01/27 12:23:14;;;;;;;1.13;1.13;;;2.40;99.90;;;;;;5036037;28;20446;-84
2022/01/27 12:25:51;;;;;;;0.40;0.40;;;2.50;99.90;;;;;;5035817;28;20469;-84
2022/01/27 12:28:18;;;;;;;0.40;0.40;;;2.40;99.90;;;;;;5035564;28;20526;-84
2022/01/27 12:30:58;;;;;;;0.30;0.30;;;2.40;99.90;;;;;;5035486;28;20917;-84
2022/01/27 12:33:25;;;;;;;1.07;0.83;;;2.50;99.90;;;;;;5035410;28;20902;-84
2022/01/27 12:35:56;;;;;;;0.30;0.30;;;2.60;99.90;;;;;;5034984;28;20478;-84
2022/01/27 12:38:24;;;;;;;0.30;0.27;;;2.70;99.90;;;;;;5035694;28;20446;-84
2022/01/27 12:40:58;;;;;;;0.50;0.50;;;2.80;99.90;;;;;;5035810;28;20470;-83
2022/01/27 12:43:25;;;;;;;0.30;0.30;;;2.90;99.90;;;;;;5035964;28;20612;-84
2022/01/27 12:45:52;;;;;;;0.40;0.30;;;3.00;99.90;;;;;;5034939;28;20470;-84
2022/01/27 12:48:23;;;;;;;0.73;0.43;;;3.00;99.90;;;;;;5034978;28;20420;-85
2022/01/27 12:50:56;;;;;;;0.67;0.67;;;3.10;99.90;;;;;;5035270;28;20463;-84
2022/01/27 12:53:24;;;;;;;0.40;0.30;;;3.00;99.90;;;;;;5034916;28;20428;-84
2022/01/27 12:55:51;;;;;;;0.30;0.30;;;2.90;99.90;;;;;;5035036;28;20461;-84
2022/01/27 12:58:19;;;;;;;0.30;0.30;;;2.90;99.90;;;;;;5035040;28;20434;-84
2022/01/27 13:00:48;;;;;;;0.67;0.67;;;2.90;99.90;;;;;;5034665;28;20979;-84
2022/01/27 13:03:15;;;;;;;0.63;0.63;;;3.00;99.90;;;;;;5035007;28;20414;-84
2022/01/27 13:05:44;;;;;;;0.63;0.63;;;3.20;99.90;;;;;;5034765;28;20470;-84
2022/01/27 13:08:13;;;;;;;0.77;0.77;;;3.20;99.90;;;;;;5035395;28;20439;-84
2022/01/27 13:10:49;;;;;;;0.30;0.30;;;3.20;99.90;;;;;;5034783;28;20436;-84
2022/01/27 13:13:20;;;;;;;0.70;0.50;;;3.20;99.90;;;;;;5034925;28;20533;-84
2022/01/27 13:15:56;;;;;;;0.30;0.30;;;3.40;99.90;;;;;;5034689;28;20569;-84
2022/01/27 13:18:29;;;;;;;0.60;0.60;;;3.40;99.90;;;;;;5034854;28;20427;-84
2022/01/27 13:20:58;;;;;;;0.83;0.40;;;3.50;99.90;;;;;;5034633;28;20477;-84